sensor_id;sensor_type;location;lat;lon;timestamp;P1;durP1;ratioP1;P2;durP2;ratioP2
25535;SDS011;13431;51.352;6.412;2023-01-19T00:00:58;13.75;;;12.10;;
25535;SDS011;13431;51.352;6.412;2023-01-19T00:03:25;13.80;;;11.85;;
25535;SDS011;13431;51.352;6.412;2023-01-19T00:05:53;13.25;;;11.85;;
25535;SDS011;13431;51.352;6.412;2023-01-19T00:08:20;12.75;;;11.55;;
25535;SDS011;13431;51.352;6.412;2023-01-19T00:10:48;13.85;;;11.65;;
25535;SDS011;13431;51.352;6.412;2023-01-19T00:13:19;13.73;;;12.40;;
25535;SDS011;13431;51.352;6.412;2023-01-19T00:15:46;12.63;;;11.32;;
25535;SDS011;13431;51.352;6.412;2023-01-19T00:18:14;13.35;;;11.88;;
25535;SDS011;13431;51.352;6.412;2023-01-19T00:20:41;16.85;;;13.15;;
25535;SDS011;13431;51.352;6.412;2023-01-19T00:23:12;14.55;;;13.00;;
25535;SDS011;13431;51.352;6.412;2023-01-19T00:25:40;14.38;;;11.82;;
25535;SDS011;13431;51.352;6.412;2023-01-19T00:28:09;12.93;;;11.57;;
25535;SDS011;13431;51.352;6.412;2023-01-19T00:30:38;15.50;;;12.43;;
25535;SDS011;13431;51.352;6.412;2023-01-19T00:33:06;13.65;;;12.23;;
25535;SDS011;13431;51.352;6.412;2023-01-19T00:35:34;13.52;;;12.13;;
25535;SDS011;13431;51.352;6.412;2023-01-19T00:38:02;14.30;;;12.75;;
25535;SDS011;13431;51.352;6.412;2023-01-19T00:40:29;15.00;;;12.32;;
25535;SDS011;13431;51.352;6.412;2023-01-19T00:42:57;14.00;;;12.57;;
25535;SDS011;13431;51.352;6.412;2023-01-19T00:45:26;14.30;;;12.88;;
25535;SDS011;13431;51.352;6.412;2023-01-19T00:47:53;15.48;;;13.40;;
25535;SDS011;13431;51.352;6.412;2023-01-19T00:50:23;16.10;;;14.40;;
25535;SDS011;13431;51.352;6.412;2023-01-19T00:52:53;14.40;;;12.82;;
25535;SDS011;13431;51.352;6.412;2023-01-19T00:55:21;14.25;;;12.68;;
25535;SDS011;13431;51.352;6.412;2023-01-19T00:57:49;16.23;;;14.50;;
25535;SDS011;13431;51.352;6.412;2023-01-19T01:00:17;16.30;;;14.13;;
25535;SDS011;13431;51.352;6.412;2023-01-19T01:02:45;16.55;;;14.85;;
25535;SDS011;13431;51.352;6.412;2023-01-19T01:05:14;18.10;;;14.20;;
25535;SDS011;13431;51.352;6.412;2023-01-19T01:07:42;15.55;;;13.80;;
25535;SDS011;13431;51.352;6.412;2023-01-19T01:10:19;16.52;;;14.60;;
25535;SDS011;13431;51.352;6.412;2023-01-19T01:12:48;18.15;;;15.25;;
25535;SDS011;13431;51.352;6.412;2023-01-19T01:15:25;17.05;;;15.18;;
25535;SDS011;13431;51.352;6.412;2023-01-19T01:17:53;17.92;;;15.65;;
25535;SDS011;13431;51.352;6.412;2023-01-19T01:20:22;17.90;;;15.10;;
25535;SDS011;13431;51.352;6.412;2023-01-19T01:22:53;15.68;;;13.60;;
25535;SDS011;13431;51.352;6.412;2023-01-19T01:25:22;18.10;;;15.80;;
25535;SDS011;13431;51.352;6.412;2023-01-19T01:27:51;17.67;;;14.77;;
25535;SDS011;13431;51.352;6.412;2023-01-19T01:30:19;15.52;;;14.02;;
25535;SDS011;13431;51.352;6.412;2023-01-19T01:32:47;19.70;;;15.23;;
25535;SDS011;13431;51.352;6.412;2023-01-19T01:35:15;17.42;;;15.45;;
25535;SDS011;13431;51.352;6.412;2023-01-19T01:37:43;16.80;;;14.27;;
25535;SDS011;13431;51.352;6.412;2023-01-19T01:40:11;17.15;;;15.13;;
25535;SDS011;13431;51.352;6.412;2023-01-19T01:42:41;16.20;;;13.20;;
25535;SDS011;13431;51.352;6.412;2023-01-19T01:53:39;16.40;;;13.73;;
25535;SDS011;13431;51.352;6.412;2023-01-19T01:56:09;14.88;;;13.25;;
25535;SDS011;13431;51.352;6.412;2023-01-19T01:58:40;17.55;;;12.45;;
25535;SDS011;13431;51.352;6.412;2023-01-19T02:01:08;17.38;;;12.88;;
25535;SDS011;13431;51.352;6.412;2023-01-19T02:03:55;14.90;;;13.40;;
25535;SDS011;13431;51.352;6.412;2023-01-19T02:06:24;15.85;;;12.95;;
25535;SDS011;13431;51.352;6.412;2023-01-19T02:09:01;14.23;;;12.38;;
25535;SDS011;13431;51.352;6.412;2023-01-19T02:11:51;14.63;;;12.57;;
25535;SDS011;13431;51.352;6.412;2023-01-19T02:14:39;14.73;;;12.57;;
25535;SDS011;13431;51.352;6.412;2023-01-19T02:17:06;14.55;;;12.65;;
25535;SDS011;13431;51.352;6.412;2023-01-19T02:19:35;20.45;;;14.35;;
25535;SDS011;13431;51.352;6.412;2023-01-19T02:24:53;14.52;;;13.00;;
25535;SDS011;13431;51.352;6.412;2023-01-19T02:27:20;15.00;;;13.05;;
25535;SDS011;13431;51.352;6.412;2023-01-19T02:29:48;17.25;;;14.20;;
25535;SDS011;13431;51.352;6.412;2023-01-19T02:32:15;13.95;;;12.48;;
25535;SDS011;13431;51.352;6.412;2023-01-19T02:34:43;14.02;;;12.40;;
25535;SDS011;13431;51.352;6.412;2023-01-19T02:37:11;16.00;;;13.43;;
25535;SDS011;13431;51.352;6.412;2023-01-19T02:39:43;17.95;;;12.88;;
25535;SDS011;13431;51.352;6.412;2023-01-19T02:42:14;14.65;;;13.25;;
25535;SDS011;13431;51.352;6.412;2023-01-19T02:44:46;17.40;;;13.88;;
25535;SDS011;13431;51.352;6.412;2023-01-19T02:47:16;15.13;;;12.10;;
25535;SDS011;13431;51.352;6.412;2023-01-19T02:49:44;13.90;;;12.52;;
25535;SDS011;13431;51.352;6.412;2023-01-19T02:52:20;15.15;;;12.88;;
25535;SDS011;13431;51.352;6.412;2023-01-19T02:57:34;13.75;;;12.32;;
25535;SDS011;13431;51.352;6.412;2023-01-19T03:08:40;14.73;;;13.05;;
25535;SDS011;13431;51.352;6.412;2023-01-19T03:11:21;13.93;;;11.75;;
25535;SDS011;13431;51.352;6.412;2023-01-19T03:13:53;18.48;;;12.90;;
25535;SDS011;13431;51.352;6.412;2023-01-19T03:19:15;14.95;;;10.73;;
25535;SDS011;13431;51.352;6.412;2023-01-19T03:21:55;17.00;;;12.18;;
25535;SDS011;13431;51.352;6.412;2023-01-19T03:24:25;17.10;;;13.40;;
25535;SDS011;13431;51.352;6.412;2023-01-19T03:27:02;15.20;;;12.35;;
25535;SDS011;13431;51.352;6.412;2023-01-19T03:29:36;16.73;;;13.40;;
25535;SDS011;13431;51.352;6.412;2023-01-19T03:32:09;16.05;;;13.25;;
25535;SDS011;13431;51.352;6.412;2023-01-19T03:34:41;23.67;;;14.10;;
25535;SDS011;13431;51.352;6.412;2023-01-19T03:37:10;16.02;;;13.80;;
25535;SDS011;13431;51.352;6.412;2023-01-19T03:39:41;15.48;;;13.10;;
25535;SDS011;13431;51.352;6.412;2023-01-19T03:42:10;15.20;;;12.30;;
25535;SDS011;13431;51.352;6.412;2023-01-19T03:44:40;15.98;;;13.35;;
25535;SDS011;13431;51.352;6.412;2023-01-19T03:47:12;14.43;;;12.75;;
25535;SDS011;13431;51.352;6.412;2023-01-19T03:49:40;15.65;;;13.10;;
25535;SDS011;13431;51.352;6.412;2023-01-19T03:52:10;17.85;;;13.32;;
25535;SDS011;13431;51.352;6.412;2023-01-19T03:54:38;21.35;;;14.43;;
25535;SDS011;13431;51.352;6.412;2023-01-19T03:57:07;20.70;;;13.75;;
25535;SDS011;13431;51.352;6.412;2023-01-19T03:59:34;15.25;;;13.27;;
25535;SDS011;13431;51.352;6.412;2023-01-19T04:02:01;17.13;;;14.40;;
25535;SDS011;13431;51.352;6.412;2023-01-19T04:04:29;18.92;;;13.57;;
25535;SDS011;13431;51.352;6.412;2023-01-19T04:06:56;16.30;;;13.85;;
25535;SDS011;13431;51.352;6.412;2023-01-19T04:09:24;17.08;;;14.00;;
25535;SDS011;13431;51.352;6.412;2023-01-19T04:11:51;18.80;;;14.10;;
25535;SDS011;13431;51.352;6.412;2023-01-19T04:14:18;20.85;;;15.95;;
25535;SDS011;13431;51.352;6.412;2023-01-19T04:16:46;18.13;;;14.05;;
25535;SDS011;13431;51.352;6.412;2023-01-19T04:19:13;21.23;;;15.75;;
25535;SDS011;13431;51.352;6.412;2023-01-19T04:21:41;19.23;;;14.75;;
25535;SDS011;13431;51.352;6.412;2023-01-19T04:24:08;16.90;;;14.18;;
25535;SDS011;13431;51.352;6.412;2023-01-19T04:26:36;17.50;;;13.73;;
25535;SDS011;13431;51.352;6.412;2023-01-19T04:29:04;17.85;;;15.90;;
25535;SDS011;13431;51.352;6.412;2023-01-19T04:31:31;18.75;;;15.18;;
25535;SDS011;13431;51.352;6.412;2023-01-19T04:34:01;18.98;;;14.23;;
25535;SDS011;13431;51.352;6.412;2023-01-19T04:36:29;21.13;;;15.40;;
25535;SDS011;13431;51.352;6.412;2023-01-19T04:38:57;20.42;;;14.43;;
25535;SDS011;13431;51.352;6.412;2023-01-19T04:41:24;18.25;;;14.57;;
25535;SDS011;13431;51.352;6.412;2023-01-19T04:43:52;22.15;;;15.30;;
25535;SDS011;13431;51.352;6.412;2023-01-19T04:46:23;19.63;;;13.88;;
25535;SDS011;13431;51.352;6.412;2023-01-19T04:48:50;19.58;;;14.73;;
25535;SDS011;13431;51.352;6.412;2023-01-19T04:51:18;20.02;;;14.10;;
25535;SDS011;13431;51.352;6.412;2023-01-19T04:53:45;17.02;;;14.32;;
25535;SDS011;13431;51.352;6.412;2023-01-19T04:56:13;22.67;;;13.82;;
25535;SDS011;13431;51.352;6.412;2023-01-19T04:58:40;15.95;;;13.90;;
25535;SDS011;13431;51.352;6.412;2023-01-19T05:01:07;17.52;;;14.27;;
25535;SDS011;13431;51.352;6.412;2023-01-19T05:03:35;18.00;;;12.68;;
25535;SDS011;13431;51.352;6.412;2023-01-19T05:06:05;18.88;;;13.35;;
25535;SDS011;13431;51.352;6.412;2023-01-19T05:08:33;12.88;;;11.25;;
25535;SDS011;13431;51.352;6.412;2023-01-19T05:11:00;15.27;;;12.85;;
25535;SDS011;13431;51.352;6.412;2023-01-19T05:13:28;15.70;;;12.98;;
25535;SDS011;13431;51.352;6.412;2023-01-19T05:15:55;12.73;;;11.43;;
25535;SDS011;13431;51.352;6.412;2023-01-19T05:18:23;16.00;;;11.45;;
25535;SDS011;13431;51.352;6.412;2023-01-19T05:20:50;13.10;;;11.10;;
25535;SDS011;13431;51.352;6.412;2023-01-19T05:23:17;13.25;;;11.80;;
25535;SDS011;13431;51.352;6.412;2023-01-19T05:25:45;11.27;;;10.18;;
25535;SDS011;13431;51.352;6.412;2023-01-19T05:28:12;11.02;;;9.55;;
25535;SDS011;13431;51.352;6.412;2023-01-19T05:30:41;12.23;;;10.45;;
25535;SDS011;13431;51.352;6.412;2023-01-19T05:33:08;11.63;;;10.45;;
25535;SDS011;13431;51.352;6.412;2023-01-19T05:35:36;10.80;;;9.30;;
25535;SDS011;13431;51.352;6.412;2023-01-19T05:38:03;12.35;;;11.07;;
25535;SDS011;13431;51.352;6.412;2023-01-19T05:40:31;10.77;;;9.68;;
25535;SDS011;13431;51.352;6.412;2023-01-19T05:43:01;11.15;;;9.65;;
25535;SDS011;13431;51.352;6.412;2023-01-19T05:45:31;10.18;;;9.07;;
25535;SDS011;13431;51.352;6.412;2023-01-19T05:47:59;10.70;;;9.15;;
25535;SDS011;13431;51.352;6.412;2023-01-19T05:50:27;10.68;;;9.23;;
25535;SDS011;13431;51.352;6.412;2023-01-19T05:52:55;10.57;;;9.30;;
25535;SDS011;13431;51.352;6.412;2023-01-19T05:55:23;10.07;;;8.50;;
25535;SDS011;13431;51.352;6.412;2023-01-19T05:57:51;10.90;;;8.18;;
25535;SDS011;13431;51.352;6.412;2023-01-19T06:00:21;8.82;;;7.93;;
25535;SDS011;13431;51.352;6.412;2023-01-19T06:02:50;9.65;;;8.68;;
25535;SDS011;13431;51.352;6.412;2023-01-19T06:05:17;8.85;;;7.95;;
25535;SDS011;13431;51.352;6.412;2023-01-19T06:07:45;10.18;;;9.18;;
25535;SDS011;13431;51.352;6.412;2023-01-19T06:10:13;8.48;;;7.68;;
25535;SDS011;13431;51.352;6.412;2023-01-19T06:12:41;8.77;;;7.90;;
25535;SDS011;13431;51.352;6.412;2023-01-19T06:15:08;9.20;;;8.32;;
25535;SDS011;13431;51.352;6.412;2023-01-19T06:17:36;8.93;;;8.02;;
25535;SDS011;13431;51.352;6.412;2023-01-19T06:20:07;8.95;;;8.05;;
25535;SDS011;13431;51.352;6.412;2023-01-19T06:22:35;9.05;;;8.15;;
25535;SDS011;13431;51.352;6.412;2023-01-19T06:25:03;9.18;;;8.15;;
25535;SDS011;13431;51.352;6.412;2023-01-19T06:27:31;10.35;;;9.25;;
25535;SDS011;13431;51.352;6.412;2023-01-19T06:30:06;10.00;;;8.73;;
25535;SDS011;13431;51.352;6.412;2023-01-19T06:32:34;9.57;;;8.48;;
25535;SDS011;13431;51.352;6.412;2023-01-19T06:35:05;11.18;;;9.57;;
25535;SDS011;13431;51.352;6.412;2023-01-19T06:37:39;12.23;;;9.82;;
25535;SDS011;13431;51.352;6.412;2023-01-19T06:40:09;10.90;;;9.70;;
25535;SDS011;13431;51.352;6.412;2023-01-19T06:42:40;10.45;;;9.35;;
25535;SDS011;13431;51.352;6.412;2023-01-19T06:45:09;11.23;;;10.02;;
25535;SDS011;13431;51.352;6.412;2023-01-19T06:47:37;11.80;;;10.55;;
25535;SDS011;13431;51.352;6.412;2023-01-19T06:50:05;11.57;;;10.38;;
25535;SDS011;13431;51.352;6.412;2023-01-19T06:52:39;12.30;;;11.07;;
25535;SDS011;13431;51.352;6.412;2023-01-19T06:55:16;12.98;;;10.38;;
25535;SDS011;13431;51.352;6.412;2023-01-19T06:57:47;12.32;;;10.43;;
25535;SDS011;13431;51.352;6.412;2023-01-19T07:00:27;12.48;;;11.13;;
25535;SDS011;13431;51.352;6.412;2023-01-19T07:03:00;15.80;;;11.23;;
25535;SDS011;13431;51.352;6.412;2023-01-19T07:05:44;15.23;;;12.10;;
25535;SDS011;13431;51.352;6.412;2023-01-19T07:08:24;14.63;;;11.82;;
25535;SDS011;13431;51.352;6.412;2023-01-19T07:10:57;13.07;;;11.15;;
25535;SDS011;13431;51.352;6.412;2023-01-19T07:13:54;14.75;;;12.07;;
25535;SDS011;13431;51.352;6.412;2023-01-19T07:16:29;15.40;;;13.27;;
25535;SDS011;13431;51.352;6.412;2023-01-19T07:18:59;14.30;;;11.93;;
25535;SDS011;13431;51.352;6.412;2023-01-19T07:21:29;14.73;;;12.15;;
25535;SDS011;13431;51.352;6.412;2023-01-19T07:24:00;15.80;;;12.80;;
25535;SDS011;13431;51.352;6.412;2023-01-19T07:26:28;17.80;;;12.52;;
25535;SDS011;13431;51.352;6.412;2023-01-19T07:28:59;16.33;;;13.02;;
25535;SDS011;13431;51.352;6.412;2023-01-19T07:31:33;16.52;;;12.43;;
25535;SDS011;13431;51.352;6.412;2023-01-19T07:34:01;19.52;;;14.18;;
25535;SDS011;13431;51.352;6.412;2023-01-19T07:36:29;17.58;;;12.70;;
25535;SDS011;13431;51.352;6.412;2023-01-19T07:38:56;15.63;;;12.48;;
25535;SDS011;13431;51.352;6.412;2023-01-19T07:41:27;13.25;;;11.02;;
25535;SDS011;13431;51.352;6.412;2023-01-19T07:43:55;14.95;;;11.82;;
25535;SDS011;13431;51.352;6.412;2023-01-19T07:46:22;13.82;;;11.40;;
25535;SDS011;13431;51.352;6.412;2023-01-19T07:48:57;13.77;;;11.20;;
25535;SDS011;13431;51.352;6.412;2023-01-19T07:51:33;15.30;;;11.88;;
25535;SDS011;13431;51.352;6.412;2023-01-19T07:54:05;14.55;;;12.02;;
25535;SDS011;13431;51.352;6.412;2023-01-19T07:56:34;13.85;;;12.00;;
25535;SDS011;13431;51.352;6.412;2023-01-19T07:59:02;14.15;;;10.77;;
25535;SDS011;13431;51.352;6.412;2023-01-19T08:01:30;15.68;;;12.60;;
25535;SDS011;13431;51.352;6.412;2023-01-19T08:03:58;14.43;;;12.93;;
25535;SDS011;13431;51.352;6.412;2023-01-19T08:06:26;16.27;;;13.48;;
25535;SDS011;13431;51.352;6.412;2023-01-19T08:08:59;14.73;;;13.23;;
25535;SDS011;13431;51.352;6.412;2023-01-19T08:11:27;18.48;;;14.30;;
25535;SDS011;13431;51.352;6.412;2023-01-19T08:13:54;16.27;;;13.35;;
25535;SDS011;13431;51.352;6.412;2023-01-19T08:16:22;16.55;;;14.05;;
25535;SDS011;13431;51.352;6.412;2023-01-19T08:18:50;16.70;;;14.70;;
25535;SDS011;13431;51.352;6.412;2023-01-19T08:21:17;17.10;;;15.30;;
25535;SDS011;13431;51.352;6.412;2023-01-19T08:23:54;18.83;;;14.30;;
25535;SDS011;13431;51.352;6.412;2023-01-19T08:26:27;19.55;;;15.20;;
25535;SDS011;13431;51.352;6.412;2023-01-19T08:28:57;17.85;;;16.02;;
25535;SDS011;13431;51.352;6.412;2023-01-19T08:31:29;20.70;;;14.98;;
25535;SDS011;13431;51.352;6.412;2023-01-19T08:33:57;16.15;;;14.45;;
25535;SDS011;13431;51.352;6.412;2023-01-19T08:36:25;17.50;;;14.63;;
25535;SDS011;13431;51.352;6.412;2023-01-19T08:38:53;18.27;;;15.55;;
25535;SDS011;13431;51.352;6.412;2023-01-19T08:41:23;20.42;;;15.77;;
25535;SDS011;13431;51.352;6.412;2023-01-19T08:43:51;18.17;;;16.23;;
25535;SDS011;13431;51.352;6.412;2023-01-19T08:46:19;18.33;;;14.20;;
25535;SDS011;13431;51.352;6.412;2023-01-19T08:48:47;22.77;;;16.33;;
25535;SDS011;13431;51.352;6.412;2023-01-19T08:51:16;20.90;;;16.52;;
25535;SDS011;13431;51.352;6.412;2023-01-19T08:53:44;24.30;;;17.23;;
25535;SDS011;13431;51.352;6.412;2023-01-19T08:56:11;19.20;;;16.15;;
25535;SDS011;13431;51.352;6.412;2023-01-19T08:58:40;20.83;;;15.98;;
25535;SDS011;13431;51.352;6.412;2023-01-19T09:01:10;21.50;;;16.42;;
25535;SDS011;13431;51.352;6.412;2023-01-19T09:03:47;21.73;;;17.42;;
25535;SDS011;13431;51.352;6.412;2023-01-19T09:06:15;23.60;;;17.17;;
25535;SDS011;13431;51.352;6.412;2023-01-19T09:08:44;23.98;;;17.30;;
25535;SDS011;13431;51.352;6.412;2023-01-19T09:11:13;25.85;;;18.48;;
25535;SDS011;13431;51.352;6.412;2023-01-19T09:13:41;25.38;;;19.10;;
25535;SDS011;13431;51.352;6.412;2023-01-19T09:16:12;27.40;;;20.70;;
25535;SDS011;13431;51.352;6.412;2023-01-19T09:18:41;23.60;;;19.25;;
25535;SDS011;13431;51.352;6.412;2023-01-19T09:21:10;26.02;;;19.63;;
25535;SDS011;13431;51.352;6.412;2023-01-19T09:23:39;25.65;;;19.95;;
25535;SDS011;13431;51.352;6.412;2023-01-19T09:26:07;30.30;;;21.48;;
25535;SDS011;13431;51.352;6.412;2023-01-19T09:28:36;26.63;;;21.05;;
25535;SDS011;13431;51.352;6.412;2023-01-19T09:31:04;29.77;;;23.10;;
25535;SDS011;13431;51.352;6.412;2023-01-19T09:33:33;28.40;;;21.58;;
25535;SDS011;13431;51.352;6.412;2023-01-19T09:36:01;29.52;;;21.08;;
25535;SDS011;13431;51.352;6.412;2023-01-19T09:38:29;28.17;;;21.58;;
25535;SDS011;13431;51.352;6.412;2023-01-19T09:40:58;35.83;;;24.30;;
25535;SDS011;13431;51.352;6.412;2023-01-19T09:45:57;36.42;;;22.65;;
25535;SDS011;13431;51.352;6.412;2023-01-19T09:48:46;34.25;;;22.88;;
25535;SDS011;13431;51.352;6.412;2023-01-19T09:51:26;34.63;;;24.10;;
25535;SDS011;13431;51.352;6.412;2023-01-19T09:56:44;38.30;;;23.40;;
25535;SDS011;13431;51.352;6.412;2023-01-19T09:59:24;30.55;;;23.55;;
25535;SDS011;13431;51.352;6.412;2023-01-19T10:04:58;37.70;;;24.63;;
25535;SDS011;13431;51.352;6.412;2023-01-19T10:18:45;36.28;;;21.88;;
25535;SDS011;13431;51.352;6.412;2023-01-19T10:21:15;39.28;;;24.27;;
25535;SDS011;13431;51.352;6.412;2023-01-19T10:26:33;36.47;;;23.42;;
25535;SDS011;13431;51.352;6.412;2023-01-19T10:29:06;40.88;;;25.23;;
25535;SDS011;13431;51.352;6.412;2023-01-19T10:31:37;33.67;;;22.30;;
25535;SDS011;13431;51.352;6.412;2023-01-19T10:34:09;28.02;;;20.92;;
25535;SDS011;13431;51.352;6.412;2023-01-19T10:36:49;35.08;;;22.35;;
25535;SDS011;13431;51.352;6.412;2023-01-19T10:39:20;30.45;;;23.20;;
25535;SDS011;13431;51.352;6.412;2023-01-19T10:41:49;29.80;;;21.75;;
25535;SDS011;13431;51.352;6.412;2023-01-19T10:44:27;32.67;;;23.10;;
25535;SDS011;13431;51.352;6.412;2023-01-19T10:47:00;31.60;;;22.60;;
25535;SDS011;13431;51.352;6.412;2023-01-19T10:49:29;39.15;;;22.67;;
25535;SDS011;13431;51.352;6.412;2023-01-19T10:52:18;35.55;;;22.50;;
25535;SDS011;13431;51.352;6.412;2023-01-19T10:54:50;37.72;;;23.10;;
25535;SDS011;13431;51.352;6.412;2023-01-19T10:57:27;43.25;;;24.42;;
25535;SDS011;13431;51.352;6.412;2023-01-19T11:00:00;32.70;;;22.48;;
25535;SDS011;13431;51.352;6.412;2023-01-19T11:02:28;37.63;;;22.67;;
25535;SDS011;13431;51.352;6.412;2023-01-19T11:04:58;38.45;;;23.77;;
25535;SDS011;13431;51.352;6.412;2023-01-19T11:07:28;37.70;;;24.50;;
25535;SDS011;13431;51.352;6.412;2023-01-19T11:13:00;29.63;;;22.52;;
25535;SDS011;13431;51.352;6.412;2023-01-19T11:15:34;38.83;;;23.27;;
25535;SDS011;13431;51.352;6.412;2023-01-19T11:18:29;33.65;;;23.20;;
25535;SDS011;13431;51.352;6.412;2023-01-19T11:21:05;34.95;;;23.10;;
25535;SDS011;13431;51.352;6.412;2023-01-19T11:23:37;34.47;;;22.70;;
25535;SDS011;13431;51.352;6.412;2023-01-19T11:26:14;33.50;;;21.73;;
25535;SDS011;13431;51.352;6.412;2023-01-19T11:29:02;35.63;;;21.08;;
25535;SDS011;13431;51.352;6.412;2023-01-19T11:31:31;30.33;;;20.55;;
25535;SDS011;13431;51.352;6.412;2023-01-19T11:34:01;30.27;;;20.58;;
25535;SDS011;13431;51.352;6.412;2023-01-19T11:36:32;32.15;;;19.65;;
25535;SDS011;13431;51.352;6.412;2023-01-19T11:41:38;33.03;;;22.02;;
25535;SDS011;13431;51.352;6.412;2023-01-19T11:44:21;29.80;;;20.55;;
25535;SDS011;13431;51.352;6.412;2023-01-19T11:47:26;30.60;;;21.75;;
25535;SDS011;13431;51.352;6.412;2023-01-19T11:49:57;28.80;;;19.27;;
25535;SDS011;13431;51.352;6.412;2023-01-19T11:58:41;27.85;;;19.25;;
25535;SDS011;13431;51.352;6.412;2023-01-19T12:01:30;30.75;;;20.05;;
25535;SDS011;13431;51.352;6.412;2023-01-19T12:04:01;32.65;;;20.65;;
25535;SDS011;13431;51.352;6.412;2023-01-19T12:06:37;23.33;;;19.05;;
25535;SDS011;13431;51.352;6.412;2023-01-19T12:11:49;28.55;;;19.08;;
25535;SDS011;13431;51.352;6.412;2023-01-19T12:17:59;20.38;;;16.27;;
25535;SDS011;13431;51.352;6.412;2023-01-19T12:28:40;20.25;;;13.85;;
25535;SDS011;13431;51.352;6.412;2023-01-19T12:31:15;19.95;;;13.27;;
25535;SDS011;13431;51.352;6.412;2023-01-19T12:33:44;17.20;;;12.43;;
25535;SDS011;13431;51.352;6.412;2023-01-19T12:49:48;18.40;;;13.27;;
25535;SDS011;13431;51.352;6.412;2023-01-19T12:55:14;21.27;;;13.13;;
25535;SDS011;13431;51.352;6.412;2023-01-19T13:00:27;20.00;;;13.57;;
25535;SDS011;13431;51.352;6.412;2023-01-19T13:05:52;18.52;;;13.35;;
25535;SDS011;13431;51.352;6.412;2023-01-19T13:08:20;19.73;;;14.30;;
25535;SDS011;13431;51.352;6.412;2023-01-19T13:13:30;20.42;;;13.60;;
25535;SDS011;13431;51.352;6.412;2023-01-19T13:15:59;19.48;;;13.52;;
25535;SDS011;13431;51.352;6.412;2023-01-19T13:21:10;21.20;;;12.43;;
25535;SDS011;13431;51.352;6.412;2023-01-19T13:23:50;20.50;;;14.27;;
25535;SDS011;13431;51.352;6.412;2023-01-19T13:26:25;20.40;;;14.23;;
25535;SDS011;13431;51.352;6.412;2023-01-19T13:28:56;20.60;;;15.10;;
25535;SDS011;13431;51.352;6.412;2023-01-19T13:31:34;19.58;;;14.70;;
25535;SDS011;13431;51.352;6.412;2023-01-19T13:34:03;21.27;;;14.55;;
25535;SDS011;13431;51.352;6.412;2023-01-19T13:36:41;22.35;;;15.45;;
25535;SDS011;13431;51.352;6.412;2023-01-19T13:39:12;21.55;;;15.60;;
25535;SDS011;13431;51.352;6.412;2023-01-19T13:41:47;20.55;;;15.75;;
25535;SDS011;13431;51.352;6.412;2023-01-19T13:44:18;20.02;;;15.70;;
25535;SDS011;13431;51.352;6.412;2023-01-19T13:46:48;25.60;;;15.98;;
25535;SDS011;13431;51.352;6.412;2023-01-19T13:52:03;19.42;;;14.10;;
25535;SDS011;13431;51.352;6.412;2023-01-19T13:55:13;16.08;;;12.93;;
25535;SDS011;13431;51.352;6.412;2023-01-19T13:57:39;17.15;;;12.13;;
25535;SDS011;13431;51.352;6.412;2023-01-19T14:02:38;19.23;;;11.05;;
25535;SDS011;13431;51.352;6.412;2023-01-19T14:07:40;16.42;;;11.60;;
25535;SDS011;13431;51.352;6.412;2023-01-19T14:10:11;18.60;;;12.10;;
25535;SDS011;13431;51.352;6.412;2023-01-19T14:12:40;15.50;;;11.80;;
25535;SDS011;13431;51.352;6.412;2023-01-19T14:15:25;20.92;;;12.63;;
25535;SDS011;13431;51.352;6.412;2023-01-19T14:20:55;18.33;;;11.82;;
25535;SDS011;13431;51.352;6.412;2023-01-19T14:29:12;18.70;;;12.60;;
25535;SDS011;13431;51.352;6.412;2023-01-19T14:31:48;16.38;;;12.68;;
25535;SDS011;13431;51.352;6.412;2023-01-19T14:37:34;20.05;;;12.68;;
25535;SDS011;13431;51.352;6.412;2023-01-19T14:45:37;14.32;;;11.48;;
25535;SDS011;13431;51.352;6.412;2023-01-19T14:50:57;17.98;;;12.90;;
25535;SDS011;13431;51.352;6.412;2023-01-19T14:53:38;16.60;;;13.30;;
25535;SDS011;13431;51.352;6.412;2023-01-19T14:56:22;19.92;;;14.15;;
25535;SDS011;13431;51.352;6.412;2023-01-19T14:58:51;18.15;;;12.65;;
25535;SDS011;13431;51.352;6.412;2023-01-19T15:01:19;20.17;;;12.13;;
25535;SDS011;13431;51.352;6.412;2023-01-19T15:03:46;16.02;;;12.13;;
25535;SDS011;13431;51.352;6.412;2023-01-19T15:06:18;15.10;;;11.98;;
25535;SDS011;13431;51.352;6.412;2023-01-19T15:08:46;18.23;;;11.27;;
25535;SDS011;13431;51.352;6.412;2023-01-19T15:13:57;13.57;;;11.85;;
25535;SDS011;13431;51.352;6.412;2023-01-19T15:16:25;17.33;;;11.93;;
25535;SDS011;13431;51.352;6.412;2023-01-19T15:18:54;13.80;;;10.82;;
25535;SDS011;13431;51.352;6.412;2023-01-19T15:21:22;18.92;;;12.98;;
25535;SDS011;13431;51.352;6.412;2023-01-19T15:23:52;19.60;;;12.45;;
25535;SDS011;13431;51.352;6.412;2023-01-19T15:26:21;15.68;;;12.32;;
25535;SDS011;13431;51.352;6.412;2023-01-19T15:28:50;15.25;;;12.57;;
25535;SDS011;13431;51.352;6.412;2023-01-19T15:31:19;15.80;;;12.85;;
25535;SDS011;13431;51.352;6.412;2023-01-19T15:33:48;16.27;;;12.25;;
25535;SDS011;13431;51.352;6.412;2023-01-19T15:36:17;18.00;;;12.88;;
25535;SDS011;13431;51.352;6.412;2023-01-19T15:38:46;17.13;;;13.30;;
25535;SDS011;13431;51.352;6.412;2023-01-19T15:41:20;18.92;;;13.95;;
25535;SDS011;13431;51.352;6.412;2023-01-19T15:43:53;20.25;;;14.02;;
25535;SDS011;13431;51.352;6.412;2023-01-19T15:46:20;23.65;;;15.60;;
25535;SDS011;13431;51.352;6.412;2023-01-19T15:48:49;21.55;;;16.88;;
25535;SDS011;13431;51.352;6.412;2023-01-19T15:51:17;21.88;;;17.35;;
25535;SDS011;13431;51.352;6.412;2023-01-19T15:53:48;24.73;;;18.10;;
25535;SDS011;13431;51.352;6.412;2023-01-19T15:56:16;28.83;;;18.17;;
25535;SDS011;13431;51.352;6.412;2023-01-19T15:58:49;22.65;;;18.25;;
25535;SDS011;13431;51.352;6.412;2023-01-19T16:01:20;20.85;;;17.20;;
25535;SDS011;13431;51.352;6.412;2023-01-19T16:03:49;23.35;;;17.00;;
25535;SDS011;13431;51.352;6.412;2023-01-19T16:06:16;22.33;;;16.15;;
25535;SDS011;13431;51.352;6.412;2023-01-19T16:08:44;24.08;;;15.88;;
25535;SDS011;13431;51.352;6.412;2023-01-19T16:11:12;25.10;;;17.95;;
25535;SDS011;13431;51.352;6.412;2023-01-19T16:13:44;20.10;;;16.08;;
25535;SDS011;13431;51.352;6.412;2023-01-19T16:16:20;22.23;;;15.82;;
25535;SDS011;13431;51.352;6.412;2023-01-19T16:18:49;23.02;;;17.13;;
25535;SDS011;13431;51.352;6.412;2023-01-19T16:21:17;25.65;;;18.65;;
25535;SDS011;13431;51.352;6.412;2023-01-19T16:23:44;24.85;;;17.13;;
25535;SDS011;13431;51.352;6.412;2023-01-19T16:28:49;22.30;;;17.13;;
25535;SDS011;13431;51.352;6.412;2023-01-19T16:31:17;23.23;;;16.40;;
25535;SDS011;13431;51.352;6.412;2023-01-19T16:33:44;21.73;;;16.42;;
25535;SDS011;13431;51.352;6.412;2023-01-19T16:36:24;23.48;;;17.38;;
25535;SDS011;13431;51.352;6.412;2023-01-19T16:38:59;22.55;;;17.15;;
25535;SDS011;13431;51.352;6.412;2023-01-19T16:41:28;25.80;;;17.60;;
25535;SDS011;13431;51.352;6.412;2023-01-19T16:43:56;22.15;;;17.52;;
25535;SDS011;13431;51.352;6.412;2023-01-19T16:46:25;25.48;;;17.75;;
25535;SDS011;13431;51.352;6.412;2023-01-19T16:48:59;27.13;;;19.50;;
25535;SDS011;13431;51.352;6.412;2023-01-19T16:51:27;30.15;;;19.98;;
25535;SDS011;13431;51.352;6.412;2023-01-19T16:53:55;28.77;;;21.05;;
25535;SDS011;13431;51.352;6.412;2023-01-19T16:56:23;29.33;;;21.02;;
25535;SDS011;13431;51.352;6.412;2023-01-19T16:58:53;27.02;;;21.77;;